Time;durP1;ratioP1;P1;durP2;ratioP2;P2;SDS_P1;SDS_P2;PMS_P1;PMS_P2;Temp;Humidity;BMP_temperature;BMP_pressure;BME280_temperature;BME280_humidity;BME280_pressure;Samples;Min_cycle;Max_cycle;Signal;HPM_P1;HPM_P2
2022/01/22 00:00:23;;;;;;;;;;;-0.50;99.90;;;;;;4995669;28;20016;-75
2022/01/22 00:02:50;;;;;;;;;;;-0.50;99.90;;;;;;4995374;28;19980;-75
2022/01/22 00:05:22;;;;;;;;;;;-0.50;99.90;;;;;;4995717;28;20301;-75
2022/01/22 00:07:54;;;;;;;;;;;-0.40;99.90;;;;;;4978200;28;20024;-75
2022/01/22 00:10:23;;;;;;;;;;;-0.40;99.90;;;;;;4995588;28;19968;-75
2022/01/22 00:15:18;;;;;;;;;;;-0.40;99.90;;;;;;5010703;28;20614;-75
2022/01/22 00:17:45;;;;;;;;;;;-0.40;99.90;;;;;;5010639;28;20344;-75
2022/01/22 00:20:12;;;;;;;;;;;-0.40;99.90;;;;;;4995469;28;20365;-75
2022/01/22 00:22:39;;;;;;;;;;;-0.40;99.90;;;;;;4977681;28;19929;-76
2022/01/22 00:25:09;;;;;;;;;;;-0.40;99.90;;;;;;4994119;28;19973;-75
2022/01/22 00:27:43;;;;;;;;;;;-0.40;99.90;;;;;;5009840;28;19980;-76
2022/01/22 00:30:17;;;;;;;;;;;-0.40;99.90;;;;;;4993128;28;19926;-76
2022/01/22 00:32:45;;;;;;;;;;;-0.40;99.90;;;;;;4993674;28;19961;-76
2022/01/22 00:35:19;;;;;;;;;;;-0.40;99.90;;;;;;4977834;28;19976;-74
2022/01/22 00:37:47;;;;;;;;;;;-0.40;99.90;;;;;;4995273;28;19972;-75
2022/01/22 00:40:21;;;;;;;;;;;-0.40;99.90;;;;;;5016331;28;20046;-74
2022/01/22 00:42:55;;;;;;;;;;;-0.40;99.90;;;;;;5046160;28;20388;-75
2022/01/22 00:45:22;;;;;;;;;;;-0.40;99.90;;;;;;5032624;28;20024;-75
2022/01/22 00:47:49;;;;;;;;;;;-0.40;99.90;;;;;;5033568;28;19929;-75
2022/01/22 00:50:24;;;;;;;;;;;-0.40;99.90;;;;;;5026156;28;19936;-75
2022/01/22 00:52:51;;;;;;;;;;;-0.40;99.90;;;;;;5014045;28;19925;-75
2022/01/22 00:55:18;;;;;;;;;;;-0.40;99.90;;;;;;5010664;28;19926;-73
2022/01/22 00:57:50;;;;;;;;;;;-0.40;99.90;;;;;;5013500;28;19926;-72
2022/01/22 01:00:17;;;;;;;;;;;-0.40;99.90;;;;;;5029350;28;19960;-75
2022/01/22 01:02:48;;;;;;;;;;;-0.40;99.90;;;;;;5011617;28;19936;-75
2022/01/22 01:05:15;;;;;;;;;;;-0.40;99.90;;;;;;4994759;28;20032;-75
2022/01/22 01:07:42;;;;;;;;;;;-0.40;99.90;;;;;;5012175;28;19932;-75
2022/01/22 01:10:15;;;;;;;;;;;-0.40;99.90;;;;;;5011937;28;20345;-75
2022/01/22 01:12:42;;;;;;;;;;;-0.30;99.90;;;;;;5012303;28;19925;-75
2022/01/22 01:34:24;;;;;;;;;;;-0.10;99.90;;;;;;5028467;28;19987;-75
2022/01/22 01:36:51;;;;;;;;;;;-0.10;99.90;;;;;;5012551;28;20412;-74
2022/01/22 01:39:29;;;;;;;;;;;-0.10;99.90;;;;;;4996065;28;20000;-75
2022/01/22 01:42:26;;;;;;;;;;;-0.10;99.90;;;;;;4995914;28;20036;-75
2022/01/22 01:44:50;;;;;;;;;;;-0.10;99.90;;;;;;4996144;28;19976;-75
2022/01/22 01:47:29;;;;;;;;;;;-0.10;99.90;;;;;;4995738;28;19930;-74
2022/01/22 01:49:56;;;;;;;;;;;-0.10;99.90;;;;;;5012049;28;19975;-75
2022/01/22 01:55:12;;;;;;;;;;;0.00;99.90;;;;;;5028652;28;20483;-75
2022/01/22 01:57:44;;;;;;;;;;;0.00;99.90;;;;;;5012698;28;19933;-74
2022/01/22 02:00:21;;;;;;;;;;;0.00;99.90;;;;;;5011897;28;19960;-74
2022/01/22 02:02:59;;;;;;;;;;;0.00;99.90;;;;;;5012238;28;20328;-75
2022/01/22 02:05:36;;;;;;;;;;;0.00;99.90;;;;;;5009840;28;19932;-75
2022/01/22 02:08:09;;;;;;;;;;;0.00;99.90;;;;;;5010686;28;19932;-74
2022/01/22 02:10:48;;;;;;;;;;;0.00;99.90;;;;;;5010230;28;19925;-75
2022/01/22 02:25:33;;;;;;;;;;;0.20;99.90;;;;;;4994489;28;20411;-74
2022/01/22 02:28:01;;;;;;;;;;;0.20;99.90;;;;;;5010781;28;19972;-75
2022/01/22 02:30:34;;;;;;;;;;;0.30;99.90;;;;;;5011253;28;19933;-75
2022/01/22 02:33:39;;;;;;;;;;;0.30;99.90;;;;;;5007325;28;19925;-74
2022/01/22 02:36:22;;;;;;;;;;;0.30;99.90;;;;;;5013547;28;19925;-75
2022/01/22 02:41:19;;;;;;;;;;;0.30;99.90;;;;;;5027603;28;19926;-73
2022/01/22 02:43:53;;;;;;;;;;;0.30;99.90;;;;;;5010030;28;19926;-75
2022/01/22 02:46:24;;;;;;;;;;;0.30;99.90;;;;;;4994709;28;19933;-73
2022/01/22 02:48:56;;;;;;;;;;;0.30;99.90;;;;;;5011793;28;19932;-74
2022/01/22 02:51:28;;;;;;;;;;;0.30;99.90;;;;;;5011741;28;20467;-75
2022/01/22 02:54:02;;;;;;;;;;;0.30;99.90;;;;;;4994186;28;20399;-75
2022/01/22 02:56:29;;;;;;;;;;;0.40;99.90;;;;;;4994411;28;19975;-75
2022/01/22 02:59:03;;;;;;;;;;;0.40;99.90;;;;;;5027536;28;20434;-75
2022/01/22 03:01:35;;;;;;;;;;;0.40;99.90;;;;;;5010114;28;19979;-75
2022/01/22 03:04:07;;;;;;;;;;;0.40;99.90;;;;;;5009636;28;19976;-75
2022/01/22 03:06:33;;;;;;;;;;;0.40;99.90;;;;;;4994402;28;19932;-75
2022/01/22 03:09:09;;;;;;;;;;;0.40;99.90;;;;;;5009990;28;19980;-75
2022/01/22 03:12:12;;;;;;;;;;;0.50;99.90;;;;;;4994420;28;20024;-74
2022/01/22 03:20:23;;;;;;;;;;;0.50;99.90;;;;;;4994350;28;19926;-75
2022/01/22 03:23:06;;;;;;;;;;;0.60;99.90;;;;;;5026553;28;19991;-75
2022/01/22 03:28:24;;;;;;;;;;;0.60;99.90;;;;;;5026943;28;19925;-75
2022/01/22 03:30:55;;;;;;;;;;;0.50;99.90;;;;;;5009436;28;19929;-75
2022/01/22 03:33:28;;;;;;;;;;;0.50;99.90;;;;;;4993840;28;19971;-75
2022/01/22 03:36:05;;;;;;;;;;;0.50;99.90;;;;;;5009924;28;19976;-75
2022/01/22 03:38:32;;;;;;;;;;;0.50;99.90;;;;;;4994230;28;20412;-74
2022/01/22 03:40:59;;;;;;;;;;;0.40;99.90;;;;;;5010213;28;19976;-75
2022/01/22 03:43:27;;;;;;;;;;;0.40;99.90;;;;;;5010096;28;19925;-75
2022/01/22 03:46:00;;;;;;;;;;;0.50;99.90;;;;;;5009432;28;19980;-75
2022/01/22 03:48:27;;;;;;;;;;;0.50;99.90;;;;;;4994123;28;20371;-74
2022/01/22 03:50:59;;;;;;;;;;;0.50;99.90;;;;;;5009512;28;20037;-75
2022/01/22 03:53:26;;;;;;;;;;;0.50;99.90;;;;;;4993503;28;20381;-74
2022/01/22 03:56:03;;;;;;;;;;;0.60;99.90;;;;;;4993927;28;19965;-75
2022/01/22 03:58:31;;;;;;;;;;;0.60;99.90;;;;;;5011817;28;19935;-74
2022/01/22 04:04:04;;;;;;;;;;;0.50;99.90;;;;;;5026264;28;20008;-75
2022/01/22 04:09:08;;;;;;;;;;;0.50;99.90;;;;;;5026592;28;20024;-75
2022/01/22 04:11:43;;;;;;;;;;;0.50;99.90;;;;;;5009366;28;19929;-75
2022/01/22 04:14:17;;;;;;;;;;;0.50;99.90;;;;;;5026153;28;19996;-75
2022/01/22 04:17:09;;;;;;;;;;;0.50;99.90;;;;;;4993701;28;19925;-73
2022/01/22 04:25:17;;;;;;;;;;;0.60;99.90;;;;;;4993652;28;19926;-74
2022/01/22 04:27:44;;;;;;;;;;;0.60;99.90;;;;;;5010023;28;20023;-75
2022/01/22 04:30:16;;;;;;;;;;;0.60;99.90;;;;;;4993756;28;19965;-74
2022/01/22 04:32:42;;;;;;;;;;;0.60;99.90;;;;;;4993237;28;19925;-75
2022/01/22 04:35:14;;;;;;;;;;;0.60;99.90;;;;;;4993710;28;20396;-75
2022/01/22 04:37:41;;;;;;;;;;;0.60;99.90;;;;;;4993452;28;20396;-75
2022/01/22 04:40:13;;;;;;;;;;;0.60;99.90;;;;;;5011233;28;20357;-75
2022/01/22 04:42:41;;;;;;;;;;;0.60;99.90;;;;;;4995328;28;19999;-75
2022/01/22 04:55:39;;;;;;;;;;;0.50;99.90;;;;;;4997071;28;19941;-75
2022/01/22 04:58:12;;;;;;;;;;;0.50;99.90;;;;;;4997789;28;19929;-75
2022/01/22 05:00:45;;;;;;;;;;;0.50;99.90;;;;;;4996735;28;20024;-75
2022/01/22 05:03:20;;;;;;;;;;;0.60;99.90;;;;;;4997811;28;20638;-75
2022/01/22 05:06:10;;;;;;;;;;;0.50;99.90;;;;;;5026599;28;19951;-75
2022/01/22 05:08:54;;;;;;;;;;;0.50;99.90;;;;;;5010877;28;19972;-74
2022/01/22 05:11:28;;;;;;;;;;;0.50;99.90;;;;;;5028408;28;20012;-73
2022/01/22 05:14:01;;;;;;;;;;;0.50;99.90;;;;;;4996091;28;19926;-75
2022/01/22 05:16:28;;;;;;;;;;;0.50;99.90;;;;;;4996266;28;19926;-75
2022/01/22 05:19:11;;;;;;;;;;;0.50;99.90;;;;;;4996380;28;19934;-75
2022/01/22 05:21:45;;;;;;;;;;;0.60;99.90;;;;;;5011813;28;19932;-75
2022/01/22 05:24:21;;;;;;;;;;;0.50;99.90;;;;;;5028176;28;19926;-75
2022/01/22 05:29:58;;;;;;;;;;;0.50;99.90;;;;;;4996168;28;19932;-74
2022/01/22 05:37:00;;;;;;;;;;;0.60;99.90;;;;;;5018089;28;19952;-73
2022/01/22 05:38:21;;;;;;;;;;;0.60;99.90;;;;;;5002723;28;20399;-75
2022/01/22 05:40:53;;;;;;;;;;;0.60;99.90;;;;;;4996162;28;20020;-75
2022/01/22 05:43:25;;;;;;;;;;;0.50;99.90;;;;;;5028331;28;19931;-74
2022/01/22 05:45:52;;;;;;;;;;;0.50;99.90;;;;;;5012325;28;20028;-74
2022/01/22 05:48:23;;;;;;;;;;;0.50;99.90;;;;;;5028796;28;20023;-75
2022/01/22 05:50:55;;;;;;;;;;;0.40;99.90;;;;;;5011844;28;20016;-75
2022/01/22 06:01:29;;;;;;;;;;;0.40;99.90;;;;;;5028465;28;20385;-74
2022/01/22 06:04:12;;;;;;;;;;;0.50;99.90;;;;;;4995092;28;19976;-74
2022/01/22 06:06:46;;;;;;;;;;;0.50;99.90;;;;;;4995562;28;20012;-75
2022/01/22 06:09:13;;;;;;;;;;;0.50;99.90;;;;;;5011719;28;19933;-75
2022/01/22 06:12:15;;;;;;;;;;;0.50;99.90;;;;;;5013213;28;20402;-75
2022/01/22 06:14:54;;;;;;;;;;;0.50;99.90;;;;;;5005944;28;19926;-75
2022/01/22 06:17:20;;;;;;;;;;;0.50;99.90;;;;;;5019446;28;19933;-74
2022/01/22 06:19:56;;;;;;;;;;;0.40;99.90;;;;;;5022549;28;19925;-73
2022/01/22 06:22:23;;;;;;;;;;;0.40;99.90;;;;;;5034121;28;19929;-73
2022/01/22 06:24:56;;;;;;;;;;;0.40;99.90;;;;;;5015357;28;19929;-75
2022/01/22 06:27:23;;;;;;;;;;;0.40;99.90;;;;;;5012040;28;20032;-74
2022/01/22 06:29:55;;;;;;;;;;;0.40;99.90;;;;;;5011302;28;20016;-74
2022/01/22 06:32:28;;;;;;;;;;;0.40;99.90;;;;;;4995311;28;20415;-75
2022/01/22 06:35:00;;;;;;;;;;;0.40;99.90;;;;;;5028379;28;19929;-75
2022/01/22 06:37:27;;;;;;;;;;;0.30;99.90;;;;;;5011574;28;20020;-74
2022/01/22 06:42:59;;;;;;;;;;;0.30;99.90;;;;;;5012095;28;19931;-74
2022/01/22 06:45:49;;;;;;;;;;;0.30;99.90;;;;;;5025421;28;19932;-74
2022/01/22 06:48:21;;;;;;;;;;;0.30;99.90;;;;;;4995638;28;19929;-74
2022/01/22 06:51:08;;;;;;;;;;;0.20;99.90;;;;;;5012773;28;19933;-74
2022/01/22 06:53:40;;;;;;;;;;;0.20;99.90;;;;;;5027954;28;19980;-74
2022/01/22 06:56:10;;;;;;;;;;;0.20;99.90;;;;;;5011613;28;19925;-74
2022/01/22 06:58:57;;;;;;;;;;;0.10;99.90;;;;;;5004853;28;19932;-75
2022/01/22 07:01:29;;;;;;;;;;;0.10;99.90;;;;;;4990985;28;19930;-75
2022/01/22 07:04:06;;;;;;;;;;;0.10;99.90;;;;;;4974758;28;19926;-75
2022/01/22 07:06:39;;;;;;;;;;;0.10;99.90;;;;;;4992764;28;19965;-75
2022/01/22 07:09:07;;;;;;;;;;;0.10;99.90;;;;;;5009496;28;20439;-74
2022/01/22 07:11:39;;;;;;;;;;;0.10;99.90;;;;;;5025780;28;19925;-75
2022/01/22 07:14:06;;;;;;;;;;;0.10;99.90;;;;;;5016171;28;20399;-74
2022/01/22 07:16:33;;;;;;;;;;;0.10;99.90;;;;;;4990696;28;19976;-74
2022/01/22 07:19:24;;;;;;;;;;;0.10;99.90;;;;;;5003510;28;19925;-73
2022/01/22 07:25:05;;;;;;;;;;;0.10;99.90;;;;;;4978968;28;19930;-74
2022/01/22 07:27:33;;;;;;;;;;;0.10;99.90;;;;;;5008644;28;19980;-74
2022/01/22 07:30:05;;;;;;;;;;;0.10;99.90;;;;;;4992443;28;20407;-74
2022/01/22 07:32:42;;;;;;;;;;;0.10;99.90;;;;;;5006737;28;20397;-75
2022/01/22 07:35:16;;;;;;;;;;;0.10;99.90;;;;;;5005528;28;20001;-74
2022/01/22 07:37:46;;;;;;;;;;;0.10;99.90;;;;;;5008464;28;19980;-74
2022/01/22 07:40:21;;;;;;;;;;;0.10;99.90;;;;;;5032033;28;20442;-74
2022/01/22 07:42:57;;;;;;;;;;;0.20;99.90;;;;;;5009515;28;19929;-74
2022/01/22 07:45:43;;;;;;;;;;;0.20;99.90;;;;;;5003980;28;19933;-74
2022/01/22 07:48:17;;;;;;;;;;;0.10;99.90;;;;;;5021271;28;20266;-74
2022/01/22 07:51:02;;;;;;;;;;;0.20;99.90;;;;;;5028291;28;19933;-75
2022/01/22 07:53:34;;;;;;;;;;;0.10;99.90;;;;;;4993377;28;19926;-75
2022/01/22 07:56:10;;;;;;;;;;;0.20;99.90;;;;;;5010340;28;20385;-75
2022/01/22 07:58:42;;;;;;;;;;;0.10;99.90;;;;;;5006408;28;19926;-76
2022/01/22 08:01:15;;;;;;;;;;;0.10;99.90;;;;;;4996888;28;19926;-73
2022/01/22 08:04:01;;;;;;;;;;;0.00;99.90;;;;;;5032760;28;19933;-76
2022/01/22 08:06:38;;;;;;;;;;;0.00;99.90;;;;;;4995837;28;19925;-75
2022/01/22 08:09:23;;;;;;;;;;;0.00;99.90;;;;;;5013937;28;19925;-75
2022/01/22 08:12:02;;;;;;;;;;;0.10;99.90;;;;;;4997225;28;20427;-75
2022/01/22 08:14:29;;;;;;;;;;;0.00;99.90;;;;;;5011757;28;19952;-75
2022/01/22 08:16:56;;;;;;;;;;;0.00;99.90;;;;;;4991971;28;19925;-74
2022/01/22 08:19:32;;;;;;;;;;;0.00;99.90;;;;;;5037057;28;19932;-75
2022/01/22 08:22:02;;;;;;;;;;;0.10;99.90;;;;;;5045552;28;20028;-75
2022/01/22 08:24:47;;;;;;;;;;;0.10;99.90;;;;;;5015131;28;19932;-75
2022/01/22 08:28:52;;;;;;;;;;;0.10;99.90;;;;;;5015733;28;19925;-75
2022/01/22 08:30:16;;;;;;;;;;;0.10;99.90;;;;;;5001420;28;19961;-75
2022/01/22 08:33:08;;;;;;;;;;;0.10;99.90;;;;;;5016183;28;19930;-74
2022/01/22 08:35:52;;;;;;;;;;;0.00;99.90;;;;;;4994526;28;19936;-74
2022/01/22 08:38:25;;;;;;;;;;;0.00;99.90;;;;;;5021679;28;19996;-75
2022/01/22 08:40:58;;;;;;;;;;;0.10;99.90;;;;;;5009161;28;19972;-75
2022/01/22 08:43:33;;;;;;;;;;;0.00;99.90;;;;;;4996451;28;20007;-74
2022/01/22 08:46:02;;;;;;;;;;;0.10;99.90;;;;;;5019700;28;19925;-74
2022/01/22 08:48:34;;;;;;;;;;;0.00;99.90;;;;;;5005519;28;19925;-74
2022/01/22 08:51:01;;;;;;;;;;;0.10;99.90;;;;;;5013059;28;19925;-75
2022/01/22 08:53:32;;;;;;;;;;;0.10;99.90;;;;;;4996171;28;19925;-75
2022/01/22 08:56:05;;;;;;;;;;;0.10;99.90;;;;;;4996479;28;19929;-74
2022/01/22 08:58:32;;;;;;;;;;;0.10;99.90;;;;;;5012905;28;20024;-75
2022/01/22 09:01:07;;;;;;;;;;;0.00;99.90;;;;;;4996489;28;19976;-75
2022/01/22 09:03:37;;;;;;;;;;;0.00;99.90;;;;;;4995852;28;20016;-74
2022/01/22 09:06:30;;;;;;;;;;;0.00;99.90;;;;;;4996301;28;20455;-74
2022/01/22 09:09:11;;;;;;;;;;;0.00;99.90;;;;;;4996392;28;19925;-75
2022/01/22 09:12:02;;;;;;;;;;;0.00;99.90;;;;;;5013676;28;19933;-74
2022/01/22 09:14:52;;;;;;;;;;;0.00;99.90;;;;;;5011201;28;20008;-74
2022/01/22 09:17:24;;;;;;;;;;;0.00;99.90;;;;;;5016526;28;19953;-74
2022/01/22 09:19:58;;;;;;;;;;;0.00;99.90;;;;;;5040841;28;19925;-74
2022/01/22 09:22:29;;;;;;;;;;;0.10;99.90;;;;;;5014371;28;19966;-74
2022/01/22 09:25:01;;;;;;;;;;;0.10;99.90;;;;;;5036335;28;19929;-74
2022/01/22 09:27:29;;;;;;;;;;;0.10;99.90;;;;;;5030214;28;19929;-75
2022/01/22 09:29:56;;;;;;;;;;;0.10;99.90;;;;;;5011992;28;19932;-75
2022/01/22 09:32:27;;;;;;;;;;;0.20;99.90;;;;;;5011283;28;19926;-75
2022/01/22 09:35:09;;;;;;;;;;;0.20;99.90;;;;;;5024050;28;19926;-74
2022/01/22 09:38:10;;;;;;;;;;;0.20;99.90;;;;;;5014722;28;20312;-74
2022/01/22 09:41:05;;;;;;;;;;;0.20;99.90;;;;;;5024269;28;19937;-75
2022/01/22 09:43:52;;;;;;;;;;;0.20;99.90;;;;;;5026409;28;19929;-74
2022/01/22 09:46:45;;;;;;;;;;;0.20;99.90;;;;;;5025360;28;19987;-74
2022/01/22 09:49:25;;;;;;;;;;;0.20;99.90;;;;;;5012984;28;20351;-74
2022/01/22 09:52:20;;;;;;;;;;;0.20;99.90;;;;;;5020784;28;19960;-74
2022/01/22 09:54:58;;;;;;;;;;;0.20;99.90;;;;;;5012889;28;19961;-75
2022/01/22 09:57:45;;;;;;;;;;;0.30;99.90;;;;;;5012048;28;19947;-74
2022/01/22 10:00:39;;;;;;;;;;;0.20;99.90;;;;;;5000698;28;19933;-75
2022/01/22 10:03:22;;;;;;;;;;;0.30;99.90;;;;;;5009105;28;19992;-75
2022/01/22 10:06:17;;;;;;;;;;;0.30;99.90;;;;;;4998680;28;20414;-75
2022/01/22 10:08:56;;;;;;;;;;;0.40;99.90;;;;;;5027823;28;19952;-75
2022/01/22 10:11:37;;;;;;;;;;;0.30;99.90;;;;;;5027920;28;20464;-75
2022/01/22 10:14:20;;;;;;;;;;;0.30;99.90;;;;;;5025265;28;19925;-75
2022/01/22 10:16:52;;;;;;;;;;;0.40;99.90;;;;;;5010299;28;19976;-74
2022/01/22 10:19:26;;;;;;;;;;;0.40;99.90;;;;;;4995843;28;20313;-73
2022/01/22 10:22:00;;;;;;;;;;;0.40;99.90;;;;;;5026187;28;19929;-75
2022/01/22 10:27:10;;;;;;;;;;;0.60;99.90;;;;;;4993928;28;19929;-75
2022/01/22 10:29:46;;;;;;;;;;;0.50;99.90;;;;;;5011035;28;19925;-75
2022/01/22 10:32:26;;;;;;;;;;;0.40;99.90;;;;;;5027044;28;19932;-74
2022/01/22 10:35:28;;;;;;;;;;;0.40;99.90;;;;;;4992294;28;19926;-75
2022/01/22 10:38:18;;;;;;;;;;;0.40;99.90;;;;;;5005117;28;19932;-75
2022/01/22 10:40:56;;;;;;;;;;;0.40;99.90;;;;;;4990412;28;20012;-75
2022/01/22 10:46:10;;;;;;;;;;;0.50;99.90;;;;;;5007667;28;19935;-76
2022/01/22 10:48:38;;;;;;;;;;;0.60;99.90;;;;;;5030146;28;20031;-75
2022/01/22 10:51:09;;;;;;;;;;;0.70;99.90;;;;;;4994470;28;19929;-75
2022/01/22 10:53:44;;;;;;;;;;;0.60;99.90;;;;;;5019623;28;20392;-76
2022/01/22 10:56:20;;;;;;;;;;;0.60;99.90;;;;;;5041716;28;20028;-75
2022/01/22 10:58:55;;;;;;;;;;;0.60;99.90;;;;;;5011152;28;19975;-75
2022/01/22 11:01:23;;;;;;;;;;;0.60;99.90;;;;;;5002135;28;20023;-76
2022/01/22 11:04:01;;;;;;;;;;;0.50;99.90;;;;;;5010208;28;19925;-76
2022/01/22 11:06:33;;;;;;;;;;;0.60;99.90;;;;;;5035468;28;20455;-75
2022/01/22 11:09:00;;;;;;;;;;;0.60;99.90;;;;;;5008596;28;19936;-75
2022/01/22 11:11:28;;;;;;;;;;;0.60;99.90;;;;;;5009158;28;20385;-75
2022/01/22 11:14:00;;;;;;;;;;;0.70;99.90;;;;;;5002373;28;19925;-76
2022/01/22 11:16:27;;;;;;;;;;;0.80;99.90;;;;;;5013314;28;19925;-76
2022/01/22 11:18:59;;;;;;;;;;;0.80;99.90;;;;;;5027735;28;19925;-75
2022/01/22 11:21:26;;;;;;;;;;;0.80;99.90;;;;;;4996190;28;19929;-75
2022/01/22 11:23:53;;;;;;;;;;;0.80;99.90;;;;;;5005151;28;20028;-75
2022/01/22 11:26:21;;;;;;;;;;;0.80;99.90;;;;;;4996202;28;20431;-75
2022/01/22 11:28:51;;;;;;;;;;;0.80;99.90;;;;;;5015343;28;20335;-75
2022/01/22 11:31:24;;;;;;;;;;;0.80;99.90;;;;;;5006838;28;20024;-74
2022/01/22 11:33:51;;;;;;;;;;;0.70;99.90;;;;;;5020509;28;19932;-75
2022/01/22 11:36:27;;;;;;;;;;;0.80;99.90;;;;;;5002912;28;19935;-76
2022/01/22 11:38:59;;;;;;;;;;;0.80;99.90;;;;;;5016850;28;19932;-75
2022/01/22 11:41:32;;;;;;;;;;;0.80;99.90;;;;;;5001400;28;19925;-76
2022/01/22 11:46:41;;;;;;;;;;;0.90;99.90;;;;;;4995047;28;20015;-75
2022/01/22 11:49:22;;;;;;;;;;;0.90;99.90;;;;;;4996950;28;20359;-74
2022/01/22 11:52:14;;;;;;;;;;;0.90;99.90;;;;;;5012073;28;20288;-75
2022/01/22 11:54:51;;;;;;;;;;;0.90;99.90;;;;;;4998338;28;19937;-75
2022/01/22 11:57:19;;;;;;;;;;;0.90;99.90;;;;;;5010815;28;19928;-74
2022/01/22 12:00:10;;;;;;;;;;;0.90;99.90;;;;;;5013174;28;19925;-74
2022/01/22 12:02:42;;;;;;;;;;;0.90;99.90;;;;;;5010273;28;19936;-74
2022/01/22 12:05:09;;;;;;;;;;;0.90;99.90;;;;;;5036875;28;20020;-75
2022/01/22 12:07:36;;;;;;;;;;;0.90;99.90;;;;;;5024506;28;20016;-75
2022/01/22 12:10:34;;;;;;;;;;;0.80;99.90;;;;;;5017493;28;19939;-75
2022/01/22 12:16:07;;;;;;;;;;;0.80;99.90;;;;;;5013420;28;19925;-74
2022/01/22 12:18:36;;;;;;;;;;;0.80;99.90;;;;;;5046588;28;19976;-73
2022/01/22 12:23:37;;;;;;;;;;;0.90;99.90;;;;;;5044268;28;20430;-74
2022/01/22 12:26:09;;;;;;;;;;;0.90;99.90;;;;;;5046742;28;19925;-74
2022/01/22 12:28:45;;;;;;;;;;;0.90;99.90;;;;;;5023478;28;20369;-74
2022/01/22 12:31:16;;;;;;;;;;;0.90;99.90;;;;;;5003293;28;20360;-74
2022/01/22 12:33:53;;;;;;;;;;;0.90;99.90;;;;;;5005499;28;19940;-74
2022/01/22 12:36:25;;;;;;;;;;;0.90;99.90;;;;;;5037110;28;19961;-75
2022/01/22 12:39:04;;;;;;;;;;;1.00;99.90;;;;;;5000671;28;19976;-74
2022/01/22 12:41:51;;;;;;;;;;;1.00;99.90;;;;;;5033273;28;19957;-73
2022/01/22 12:44:31;;;;;;;;;;;1.00;99.90;;;;;;5012882;28;20023;-74
2022/01/22 12:47:09;;;;;;;;;;;1.00;99.90;;;;;;5012172;28;20036;-75
2022/01/22 12:49:36;;;;;;;;;;;1.00;99.90;;;;;;5025913;28;20012;-74
2022/01/22 12:52:13;;;;;;;;;;;1.00;99.90;;;;;;5002456;28;20385;-75
2022/01/22 12:54:48;;;;;;;;;;;1.00;99.90;;;;;;5012263;28;19955;-74
2022/01/22 12:57:15;;;;;;;;;;;1.00;99.90;;;;;;5030888;28;19936;-74
2022/01/22 13:00:18;;;;;;;;;;;1.00;99.90;;;;;;5002336;28;19932;-75
2022/01/22 13:02:53;;;;;;;;;;;1.00;99.90;;;;;;5025787;28;20028;-74
2022/01/22 13:05:22;;;;;;;;;;;1.10;99.90;;;;;;5010919;28;20016;-75
2022/01/22 13:07:56;;;;;;;;;;;1.10;99.90;;;;;;4995625;28;19925;-74
2022/01/22 13:10:44;;;;;;;;;;;1.10;99.90;;;;;;5014039;28;19931;-75
2022/01/22 13:13:17;;;;;;;;;;;1.00;99.90;;;;;;5012830;28;20533;-74
2022/01/22 13:16:09;;;;;;;;;;;0.90;99.90;;;;;;5013336;28;19932;-74
2022/01/22 13:18:46;;;;;;;;;;;1.00;99.90;;;;;;4995675;28;20028;-74
2022/01/22 13:21:15;;;;;;;;;;;0.90;99.90;;;;;;5028567;28;20351;-74
2022/01/22 13:23:41;;;;;;;;;;;1.00;99.90;;;;;;5011259;28;20448;-74
2022/01/22 13:26:14;;;;;;;;;;;0.90;99.90;;;;;;4990493;28;19942;-75
2022/01/22 13:28:45;;;;;;;;;;;0.90;99.90;;;;;;5008939;28;20380;-75
2022/01/22 13:31:14;;;;;;;;;;;1.00;99.90;;;;;;5009605;28;19932;-75
2022/01/22 13:33:58;;;;;;;;;;;1.00;99.90;;;;;;4993420;28;19932;-75
2022/01/22 13:36:48;;;;;;;;;;;1.00;99.90;;;;;;5009532;28;20384;-75
2022/01/22 13:50:04;;;;;;;;;;;1.00;99.90;;;;;;5013142;28;19925;-74
2022/01/22 13:52:36;;;;;;;;;;;1.00;99.90;;;;;;5010784;28;19929;-74
2022/01/22 13:55:03;;;;;;;;;;;1.00;99.90;;;;;;5011922;28;19977;-75
2022/01/22 13:57:34;;;;;;;;;;;1.00;99.90;;;;;;5011743;28;19968;-75
2022/01/22 14:00:07;;;;;;;;;;;1.00;99.90;;;;;;4995419;28;20023;-75
2022/01/22 14:05:27;;;;;;;;;;;1.00;99.90;;;;;;5028119;28;20380;-75
2022/01/22 14:07:59;;;;;;;;;;;1.00;99.90;;;;;;5027323;28;20005;-75
2022/01/22 14:10:26;;;;;;;;;;;1.00;99.90;;;;;;5011227;28;19975;-75
2022/01/22 14:13:10;;;;;;;;;;;1.00;99.90;;;;;;4994702;28;19956;-74
2022/01/22 14:15:41;;;;;;;;;;;1.00;99.90;;;;;;5011630;28;19925;-75
2022/01/22 14:20:51;;;;;;;;;;;1.00;99.90;;;;;;5012640;28;20016;-75
2022/01/22 14:23:19;;;;;;;;;;;1.10;99.90;;;;;;4994405;28;20088;-74
2022/01/22 14:26:03;;;;;;;;;;;1.10;99.90;;;;;;5012647;28;19980;-74
2022/01/22 14:28:46;;;;;;;;;;;1.10;99.90;;;;;;5031567;28;19965;-73
2022/01/22 14:31:16;;;;;;;;;;;1.00;99.90;;;;;;5017564;28;19957;-73
2022/01/22 14:33:43;;;;;;;;;;;1.00;99.90;;;;;;5011695;28;20351;-74
2022/01/22 14:36:13;;;;;;;;;;;1.00;99.90;;;;;;4995009;28;19965;-74
2022/01/22 14:46:42;;;;;;;;;;;1.10;99.90;;;;;;5046920;28;20054;-75
2022/01/22 14:49:09;;;;;;;;;;;1.10;99.90;;;;;;5031544;28;19925;-74
2022/01/22 14:51:40;;;;;;;;;;;1.00;99.90;;;;;;5030821;28;19931;-74
2022/01/22 14:54:07;;;;;;;;;;;1.00;99.90;;;;;;5013386;28;20015;-74
2022/01/22 14:56:34;;;;;;;;;;;1.00;99.90;;;;;;5029928;28;19925;-73
2022/01/22 14:59:00;;;;;;;;;;;1.00;99.90;;;;;;5030251;28;19933;-74
2022/01/22 15:01:32;;;;;;;;;;;1.00;99.90;;;;;;5012277;28;20492;-74
2022/01/22 15:04:04;;;;;;;;;;;0.90;99.90;;;;;;5046385;28;19953;-74
2022/01/22 15:06:35;;;;;;;;;;;0.90;99.90;;;;;;5020617;28;20032;-74
2022/01/22 15:09:07;;;;;;;;;;;0.90;99.90;;;;;;5004281;28;19926;-74
2022/01/22 15:11:39;;;;;;;;;;;0.90;99.90;;;;;;5011530;28;19926;-74
2022/01/22 15:14:11;;;;;;;;;;;0.90;99.90;;;;;;5042344;28;19925;-75
2022/01/22 15:16:51;;;;;;;;;;;0.80;99.90;;;;;;5013721;28;19932;-74
2022/01/22 15:19:22;;;;;;;;;;;0.80;99.90;;;;;;4988844;28;20416;-74
2022/01/22 15:21:50;;;;;;;;;;;0.80;99.90;;;;;;5011002;28;20024;-74
2022/01/22 15:24:18;;;;;;;;;;;0.80;99.90;;;;;;5009351;28;20009;-74
2022/01/22 15:26:46;;;;;;;;;;;0.80;99.90;;;;;;5034510;28;19929;-74
2022/01/22 15:29:24;;;;;;;;;;;0.80;99.90;;;;;;4993838;28;19968;-74
2022/01/22 15:32:30;;;;;;;;;;;0.80;99.90;;;;;;5025997;28;19925;-74
2022/01/22 15:34:54;;;;;;;;;;;0.80;99.90;;;;;;5008039;28;19926;-74
2022/01/22 15:37:22;;;;;;;;;;;0.80;99.90;;;;;;4979342;28;20016;-74
2022/01/22 15:40:00;;;;;;;;;;;0.80;99.90;;;;;;5001480;28;19980;-74
2022/01/22 15:42:40;;;;;;;;;;;0.80;99.90;;;;;;4989068;28;19925;-74
2022/01/22 15:45:08;;;;;;;;;;;0.80;99.90;;;;;;5021135;28;19947;-74
2022/01/22 15:47:35;;;;;;;;;;;0.80;99.90;;;;;;5044487;28;19925;-74
2022/01/22 15:50:03;;;;;;;;;;;0.80;99.90;;;;;;5042726;28;20342;-75
2022/01/22 15:52:38;;;;;;;;;;;0.80;99.90;;;;;;5045393;28;20342;-75
2022/01/22 15:55:11;;;;;;;;;;;0.80;99.90;;;;;;5030372;28;19925;-75
2022/01/22 15:57:42;;;;;;;;;;;0.80;99.90;;;;;;5011812;28;20000;-74
2022/01/22 16:00:16;;;;;;;;;;;0.80;99.90;;;;;;5013745;28;19929;-74
2022/01/22 16:02:46;;;;;;;;;;;0.80;99.90;;;;;;5010830;28;19925;-74
2022/01/22 16:05:24;;;;;;;;;;;0.80;99.90;;;;;;5011526;28;19925;-74
2022/01/22 16:07:59;;;;;;;;;;;0.80;99.90;;;;;;5005196;28;19931;-75
2022/01/22 16:10:32;;;;;;;;;;;0.80;99.90;;;;;;5015493;28;19941;-78
2022/01/22 16:12:59;;;;;;;;;;;0.80;99.90;;;;;;5008525;28;20365;-74
2022/01/22 16:15:31;;;;;;;;;;;0.80;99.90;;;;;;4994140;28;19975;-74
2022/01/22 16:17:59;;;;;;;;;;;0.80;99.90;;;;;;4998345;28;19929;-74
2022/01/22 16:20:28;;;;;;;;;;;0.70;99.90;;;;;;4986449;28;19929;-74
2022/01/22 16:25:05;;;;;;;24.70;13.55;;;0.80;99.90;;;;;;5137963;27;20124;-74
2022/01/22 16:27:34;;;;;;;26.15;12.90;;;0.80;99.90;;;;;;5115329;27;20119;-73
2022/01/22 16:30:08;;;;;;;25.13;13.15;;;0.80;99.90;;;;;;5110492;28;20134;-73
2022/01/22 16:32:37;;;;;;;21.38;13.38;;;0.90;99.90;;;;;;5107661;28;20038;-73
2022/01/22 16:35:05;;;;;;;23.52;13.45;;;0.90;99.90;;;;;;5109329;28;20077;-73
2022/01/22 16:37:33;;;;;;;19.80;13.43;;;0.80;99.90;;;;;;5110010;28;20468;-74
2022/01/22 16:40:06;;;;;;;;;;;0.90;99.90;;;;;;5110711;28;20695;-73
2022/01/22 16:42:46;;;;;;;21.60;13.02;;;0.90;99.90;;;;;;5109719;28;19920;-74
2022/01/22 16:56:25;;;;;;;25.05;13.63;;;0.90;99.90;;;;;;5125453;27;20066;-73
2022/01/22 16:59:05;;;;;;;24.35;12.93;;;0.90;99.90;;;;;;5107957;28;20047;-73
2022/01/22 17:01:45;;;;;;;22.58;13.32;;;0.90;99.90;;;;;;5109635;28;20035;-73
2022/01/22 17:04:33;;;;;;;26.55;14.13;;;0.90;99.90;;;;;;5118950;28;20068;-74
2022/01/22 17:10:20;;;;;;;29.48;14.93;;;0.90;99.90;;;;;;5024026;28;20627;-73
2022/01/22 17:15:38;;;;;;;25.42;14.88;;;0.90;99.90;;;;;;5121429;28;20484;-73
2022/01/22 17:18:07;;;;;;;26.92;14.10;;;0.90;99.90;;;;;;5109393;28;20051;-73
2022/01/22 17:20:59;;;;;;;21.77;14.13;;;0.90;99.90;;;;;;5107451;28;20429;-73
2022/01/22 17:23:28;;;;;;;29.45;15.00;;;1.00;99.90;;;;;;5114927;27;20066;-73
2022/01/22 17:25:56;;;;;;;26.15;14.85;;;1.00;99.90;;;;;;5110440;28;20065;-73
2022/01/22 17:28:36;;;;;;;28.75;15.45;;;1.00;99.90;;;;;;5127125;28;20044;-72